sensor_id;sensor_type;location;lat;lon;timestamp;P1;durP1;ratioP1;P2;durP2;ratioP2
35444;SDS011;21562;49.476;6.086;2022-09-09T00:02:19;8.07;;;1.00;;
35444;SDS011;21562;49.476;6.086;2022-09-09T00:04:51;7.97;;;1.30;;
35444;SDS011;21562;49.476;6.086;2022-09-09T00:07:44;5.65;;;1.10;;
35444;SDS011;21562;49.476;6.086;2022-09-09T00:15:51;8.00;;;1.02;;
35444;SDS011;21562;49.476;6.086;2022-09-09T00:18:44;11.48;;;1.77;;
35444;SDS011;21562;49.476;6.086;2022-09-09T00:21:18;10.95;;;1.20;;
35444;SDS011;21562;49.476;6.086;2022-09-09T00:23:50;5.13;;;1.88;;
35444;SDS011;21562;49.476;6.086;2022-09-09T00:31:32;5.68;;;1.20;;
35444;SDS011;21562;49.476;6.086;2022-09-09T00:34:03;9.35;;;1.15;;
35444;SDS011;21562;49.476;6.086;2022-09-09T00:36:42;10.10;;;1.45;;
35444;SDS011;21562;49.476;6.086;2022-09-09T00:39:19;11.73;;;0.90;;
35444;SDS011;21562;49.476;6.086;2022-09-09T00:44:36;6.03;;;1.20;;
35444;SDS011;21562;49.476;6.086;2022-09-09T00:50:00;7.03;;;1.52;;
35444;SDS011;21562;49.476;6.086;2022-09-09T00:58:24;11.88;;;1.70;;
35444;SDS011;21562;49.476;6.086;2022-09-09T01:00:51;4.88;;;0.98;;
35444;SDS011;21562;49.476;6.086;2022-09-09T01:03:36;8.18;;;1.20;;
35444;SDS011;21562;49.476;6.086;2022-09-09T01:06:29;9.85;;;1.48;;
35444;SDS011;21562;49.476;6.086;2022-09-09T01:17:01;3.20;;;0.65;;
35444;SDS011;21562;49.476;6.086;2022-09-09T01:28:00;5.88;;;1.40;;
35444;SDS011;21562;49.476;6.086;2022-09-09T01:30:30;3.33;;;1.20;;
35444;SDS011;21562;49.476;6.086;2022-09-09T01:32:58;6.15;;;1.00;;
35444;SDS011;21562;49.476;6.086;2022-09-09T01:37:56;6.35;;;0.90;;
35444;SDS011;21562;49.476;6.086;2022-09-09T01:40:23;3.60;;;0.70;;
35444;SDS011;21562;49.476;6.086;2022-09-09T01:42:51;4.22;;;1.20;;
35444;SDS011;21562;49.476;6.086;2022-09-09T01:45:17;6.07;;;0.90;;
35444;SDS011;21562;49.476;6.086;2022-09-09T01:47:44;6.35;;;1.50;;
35444;SDS011;21562;49.476;6.086;2022-09-09T01:50:11;7.47;;;1.10;;
35444;SDS011;21562;49.476;6.086;2022-09-09T01:52:39;6.15;;;1.17;;
35444;SDS011;21562;49.476;6.086;2022-09-09T01:55:05;4.05;;;1.10;;
35444;SDS011;21562;49.476;6.086;2022-09-09T01:57:33;9.38;;;1.00;;
35444;SDS011;21562;49.476;6.086;2022-09-09T02:05:33;5.72;;;0.70;;
35444;SDS011;21562;49.476;6.086;2022-09-09T02:08:08;6.63;;;1.08;;
35444;SDS011;21562;49.476;6.086;2022-09-09T02:10:58;10.32;;;1.63;;
35444;SDS011;21562;49.476;6.086;2022-09-09T02:13:31;10.32;;;1.48;;
35444;SDS011;21562;49.476;6.086;2022-09-09T02:16:10;6.05;;;0.93;;
35444;SDS011;21562;49.476;6.086;2022-09-09T02:18:56;3.97;;;1.25;;
35444;SDS011;21562;49.476;6.086;2022-09-09T02:21:31;7.40;;;1.50;;
35444;SDS011;21562;49.476;6.086;2022-09-09T02:24:00;7.25;;;1.08;;
35444;SDS011;21562;49.476;6.086;2022-09-09T02:26:29;6.97;;;1.15;;
35444;SDS011;21562;49.476;6.086;2022-09-09T02:28:59;5.38;;;0.90;;
35444;SDS011;21562;49.476;6.086;2022-09-09T02:31:28;4.50;;;0.85;;
35444;SDS011;21562;49.476;6.086;2022-09-09T02:33:55;4.85;;;1.00;;
35444;SDS011;21562;49.476;6.086;2022-09-09T02:36:27;7.05;;;1.33;;
35444;SDS011;21562;49.476;6.086;2022-09-09T02:38:58;8.10;;;1.25;;
35444;SDS011;21562;49.476;6.086;2022-09-09T02:41:36;9.68;;;1.40;;
35444;SDS011;21562;49.476;6.086;2022-09-09T02:44:13;7.00;;;1.15;;
35444;SDS011;21562;49.476;6.086;2022-09-09T02:46:55;6.65;;;1.63;;
35444;SDS011;21562;49.476;6.086;2022-09-09T02:49:26;6.07;;;1.02;;
35444;SDS011;21562;49.476;6.086;2022-09-09T02:52:06;6.82;;;1.20;;
35444;SDS011;21562;49.476;6.086;2022-09-09T02:54:34;8.45;;;1.20;;
35444;SDS011;21562;49.476;6.086;2022-09-09T02:57:06;10.55;;;1.20;;
35444;SDS011;21562;49.476;6.086;2022-09-09T02:59:37;7.78;;;1.40;;
35444;SDS011;21562;49.476;6.086;2022-09-09T03:02:03;5.80;;;1.10;;
35444;SDS011;21562;49.476;6.086;2022-09-09T03:04:29;6.88;;;1.10;;
35444;SDS011;21562;49.476;6.086;2022-09-09T03:06:56;3.30;;;1.02;;
35444;SDS011;21562;49.476;6.086;2022-09-09T03:09:22;8.00;;;1.10;;
35444;SDS011;21562;49.476;6.086;2022-09-09T03:11:48;4.47;;;1.25;;
35444;SDS011;21562;49.476;6.086;2022-09-09T03:14:14;7.43;;;0.95;;
35444;SDS011;21562;49.476;6.086;2022-09-09T03:16:40;6.45;;;1.20;;
35444;SDS011;21562;49.476;6.086;2022-09-09T03:19:07;4.55;;;1.10;;
35444;SDS011;21562;49.476;6.086;2022-09-09T03:21:33;7.88;;;1.80;;
35444;SDS011;21562;49.476;6.086;2022-09-09T03:23:59;9.43;;;1.10;;
35444;SDS011;21562;49.476;6.086;2022-09-09T03:26:25;5.47;;;1.10;;
35444;SDS011;21562;49.476;6.086;2022-09-09T03:28:50;10.43;;;1.20;;
35444;SDS011;21562;49.476;6.086;2022-09-09T03:31:17;9.30;;;1.15;;
35444;SDS011;21562;49.476;6.086;2022-09-09T03:33:44;13.60;;;1.73;;
35444;SDS011;21562;49.476;6.086;2022-09-09T03:36:10;8.15;;;1.52;;
35444;SDS011;21562;49.476;6.086;2022-09-09T03:38:36;4.97;;;1.17;;
35444;SDS011;21562;49.476;6.086;2022-09-09T03:41:01;7.22;;;1.27;;
35444;SDS011;21562;49.476;6.086;2022-09-09T03:43:30;20.08;;;2.65;;
35444;SDS011;21562;49.476;6.086;2022-09-09T03:45:56;6.50;;;2.28;;
35444;SDS011;21562;49.476;6.086;2022-09-09T03:48:22;6.28;;;1.33;;
35444;SDS011;21562;49.476;6.086;2022-09-09T03:50:49;5.10;;;1.90;;
35444;SDS011;21562;49.476;6.086;2022-09-09T03:53:17;10.63;;;1.35;;
35444;SDS011;21562;49.476;6.086;2022-09-09T03:55:44;12.38;;;1.58;;
35444;SDS011;21562;49.476;6.086;2022-09-09T03:58:15;5.50;;;1.70;;
35444;SDS011;21562;49.476;6.086;2022-09-09T04:00:43;7.97;;;1.60;;
35444;SDS011;21562;49.476;6.086;2022-09-09T04:03:17;12.18;;;1.45;;
35444;SDS011;21562;49.476;6.086;2022-09-09T04:05:43;12.52;;;1.85;;
35444;SDS011;21562;49.476;6.086;2022-09-09T04:08:09;4.57;;;1.02;;
35444;SDS011;21562;49.476;6.086;2022-09-09T04:10:36;4.50;;;1.48;;
35444;SDS011;21562;49.476;6.086;2022-09-09T04:13:02;8.95;;;1.65;;
35444;SDS011;21562;49.476;6.086;2022-09-09T04:15:29;8.43;;;1.38;;
35444;SDS011;21562;49.476;6.086;2022-09-09T04:17:55;8.07;;;1.60;;
35444;SDS011;21562;49.476;6.086;2022-09-09T04:20:21;14.93;;;2.10;;
35444;SDS011;21562;49.476;6.086;2022-09-09T04:22:47;6.18;;;1.38;;
35444;SDS011;21562;49.476;6.086;2022-09-09T04:25:13;5.30;;;1.55;;
35444;SDS011;21562;49.476;6.086;2022-09-09T04:27:39;12.25;;;1.40;;
35444;SDS011;21562;49.476;6.086;2022-09-09T04:30:05;13.10;;;1.98;;
35444;SDS011;21562;49.476;6.086;2022-09-09T04:32:33;8.23;;;1.67;;
35444;SDS011;21562;49.476;6.086;2022-09-09T04:34:58;8.48;;;1.77;;
35444;SDS011;21562;49.476;6.086;2022-09-09T04:37:24;9.90;;;1.38;;
35444;SDS011;21562;49.476;6.086;2022-09-09T04:39:50;12.52;;;2.55;;
35444;SDS011;21562;49.476;6.086;2022-09-09T04:42:16;11.52;;;2.88;;
35444;SDS011;21562;49.476;6.086;2022-09-09T04:44:42;6.55;;;1.65;;
35444;SDS011;21562;49.476;6.086;2022-09-09T04:47:09;12.98;;;2.00;;
35444;SDS011;21562;49.476;6.086;2022-09-09T04:49:35;11.45;;;1.35;;
35444;SDS011;21562;49.476;6.086;2022-09-09T04:52:02;18.27;;;1.98;;
35444;SDS011;21562;49.476;6.086;2022-09-09T04:54:28;10.43;;;1.85;;
35444;SDS011;21562;49.476;6.086;2022-09-09T04:56:54;10.77;;;1.63;;
35444;SDS011;21562;49.476;6.086;2022-09-09T04:59:20;6.32;;;1.45;;
35444;SDS011;21562;49.476;6.086;2022-09-09T05:01:46;12.20;;;1.77;;
35444;SDS011;21562;49.476;6.086;2022-09-09T05:04:13;13.98;;;1.95;;
35444;SDS011;21562;49.476;6.086;2022-09-09T05:06:40;14.48;;;2.90;;
35444;SDS011;21562;49.476;6.086;2022-09-09T05:09:07;12.15;;;1.90;;
35444;SDS011;21562;49.476;6.086;2022-09-09T05:11:33;14.52;;;2.13;;
35444;SDS011;21562;49.476;6.086;2022-09-09T05:14:01;14.23;;;2.13;;
35444;SDS011;21562;49.476;6.086;2022-09-09T05:16:28;15.88;;;1.80;;
35444;SDS011;21562;49.476;6.086;2022-09-09T05:18:55;7.35;;;1.90;;
35444;SDS011;21562;49.476;6.086;2022-09-09T05:21:21;15.88;;;2.53;;
35444;SDS011;21562;49.476;6.086;2022-09-09T05:23:48;11.73;;;1.88;;
35444;SDS011;21562;49.476;6.086;2022-09-09T05:26:17;7.38;;;1.75;;
35444;SDS011;21562;49.476;6.086;2022-09-09T05:28:44;11.63;;;1.98;;
35444;SDS011;21562;49.476;6.086;2022-09-09T05:31:11;18.13;;;1.80;;
35444;SDS011;21562;49.476;6.086;2022-09-09T05:33:38;13.30;;;1.88;;
35444;SDS011;21562;49.476;6.086;2022-09-09T05:36:15;13.50;;;2.33;;
35444;SDS011;21562;49.476;6.086;2022-09-09T05:38:43;8.98;;;1.58;;
35444;SDS011;21562;49.476;6.086;2022-09-09T05:41:09;6.18;;;1.48;;
35444;SDS011;21562;49.476;6.086;2022-09-09T05:43:36;9.13;;;1.63;;
35444;SDS011;21562;49.476;6.086;2022-09-09T05:46:06;18.45;;;2.45;;
35444;SDS011;21562;49.476;6.086;2022-09-09T05:48:38;9.10;;;1.58;;
35444;SDS011;21562;49.476;6.086;2022-09-09T05:51:06;9.43;;;1.70;;
35444;SDS011;21562;49.476;6.086;2022-09-09T05:53:35;16.38;;;2.00;;
35444;SDS011;21562;49.476;6.086;2022-09-09T05:56:01;10.85;;;1.85;;
35444;SDS011;21562;49.476;6.086;2022-09-09T05:58:39;19.92;;;1.80;;
35444;SDS011;21562;49.476;6.086;2022-09-09T06:03:34;10.60;;;1.48;;
35444;SDS011;21562;49.476;6.086;2022-09-09T06:06:01;24.23;;;3.55;;
35444;SDS011;21562;49.476;6.086;2022-09-09T06:08:30;14.10;;;1.67;;
35444;SDS011;21562;49.476;6.086;2022-09-09T06:11:10;14.00;;;1.70;;
35444;SDS011;21562;49.476;6.086;2022-09-09T06:13:37;8.57;;;1.27;;
35444;SDS011;21562;49.476;6.086;2022-09-09T06:16:05;15.80;;;3.00;;
35444;SDS011;21562;49.476;6.086;2022-09-09T06:18:33;10.25;;;2.13;;
35444;SDS011;21562;49.476;6.086;2022-09-09T06:21:00;11.30;;;1.42;;
35444;SDS011;21562;49.476;6.086;2022-09-09T06:23:31;10.25;;;1.80;;
35444;SDS011;21562;49.476;6.086;2022-09-09T06:26:04;13.95;;;1.73;;
35444;SDS011;21562;49.476;6.086;2022-09-09T06:28:31;18.95;;;1.50;;
35444;SDS011;21562;49.476;6.086;2022-09-09T06:30:58;12.20;;;1.70;;
35444;SDS011;21562;49.476;6.086;2022-09-09T06:33:25;13.57;;;2.50;;
35444;SDS011;21562;49.476;6.086;2022-09-09T06:35:51;6.80;;;1.60;;
35444;SDS011;21562;49.476;6.086;2022-09-09T06:38:18;10.75;;;1.92;;
35444;SDS011;21562;49.476;6.086;2022-09-09T06:40:50;15.80;;;1.80;;
35444;SDS011;21562;49.476;6.086;2022-09-09T06:43:17;8.50;;;1.70;;
35444;SDS011;21562;49.476;6.086;2022-09-09T06:45:52;10.43;;;2.08;;
35444;SDS011;21562;49.476;6.086;2022-09-09T06:48:21;10.15;;;2.25;;
35444;SDS011;21562;49.476;6.086;2022-09-09T06:50:47;14.93;;;2.67;;
35444;SDS011;21562;49.476;6.086;2022-09-09T06:53:17;10.57;;;1.75;;
35444;SDS011;21562;49.476;6.086;2022-09-09T06:55:44;16.02;;;1.73;;
35444;SDS011;21562;49.476;6.086;2022-09-09T06:58:10;13.70;;;1.50;;
35444;SDS011;21562;49.476;6.086;2022-09-09T07:00:36;9.52;;;1.92;;
35444;SDS011;21562;49.476;6.086;2022-09-09T07:03:04;8.30;;;1.48;;
35444;SDS011;21562;49.476;6.086;2022-09-09T07:05:31;16.92;;;2.25;;
35444;SDS011;21562;49.476;6.086;2022-09-09T07:07:57;11.38;;;1.95;;
35444;SDS011;21562;49.476;6.086;2022-09-09T07:10:23;13.93;;;1.83;;
35444;SDS011;21562;49.476;6.086;2022-09-09T07:12:52;14.82;;;2.08;;
35444;SDS011;21562;49.476;6.086;2022-09-09T07:15:18;13.52;;;1.83;;
35444;SDS011;21562;49.476;6.086;2022-09-09T07:17:44;12.38;;;1.88;;
35444;SDS011;21562;49.476;6.086;2022-09-09T07:20:11;13.20;;;1.77;;
35444;SDS011;21562;49.476;6.086;2022-09-09T07:22:37;8.52;;;1.75;;
35444;SDS011;21562;49.476;6.086;2022-09-09T07:25:03;11.10;;;1.67;;
35444;SDS011;21562;49.476;6.086;2022-09-09T07:27:29;16.90;;;2.03;;
35444;SDS011;21562;49.476;6.086;2022-09-09T07:29:55;6.53;;;1.42;;
35444;SDS011;21562;49.476;6.086;2022-09-09T07:32:20;11.35;;;1.80;;
35444;SDS011;21562;49.476;6.086;2022-09-09T07:34:46;17.58;;;2.00;;
35444;SDS011;21562;49.476;6.086;2022-09-09T07:37:12;11.40;;;2.15;;
35444;SDS011;21562;49.476;6.086;2022-09-09T07:39:39;14.60;;;1.95;;
35444;SDS011;21562;49.476;6.086;2022-09-09T07:42:04;18.55;;;1.85;;
35444;SDS011;21562;49.476;6.086;2022-09-09T07:44:30;14.75;;;2.28;;
35444;SDS011;21562;49.476;6.086;2022-09-09T07:47:00;11.35;;;1.33;;
35444;SDS011;21562;49.476;6.086;2022-09-09T07:49:26;14.80;;;2.28;;
35444;SDS011;21562;49.476;6.086;2022-09-09T07:51:52;18.13;;;2.40;;
35444;SDS011;21562;49.476;6.086;2022-09-09T07:54:18;17.85;;;3.60;;
35444;SDS011;21562;49.476;6.086;2022-09-09T07:56:48;11.65;;;2.55;;
35444;SDS011;21562;49.476;6.086;2022-09-09T07:59:15;14.07;;;2.83;;
35444;SDS011;21562;49.476;6.086;2022-09-09T08:01:45;11.00;;;2.00;;
35444;SDS011;21562;49.476;6.086;2022-09-09T08:04:21;12.02;;;1.48;;
35444;SDS011;21562;49.476;6.086;2022-09-09T08:06:52;27.73;;;4.05;;
35444;SDS011;21562;49.476;6.086;2022-09-09T08:09:19;25.48;;;5.35;;
35444;SDS011;21562;49.476;6.086;2022-09-09T08:11:46;12.15;;;1.88;;
35444;SDS011;21562;49.476;6.086;2022-09-09T08:14:12;16.98;;;2.55;;
35444;SDS011;21562;49.476;6.086;2022-09-09T08:16:42;12.57;;;1.73;;
35444;SDS011;21562;49.476;6.086;2022-09-09T08:19:10;14.52;;;2.20;;
35444;SDS011;21562;49.476;6.086;2022-09-09T08:21:37;9.30;;;1.88;;
35444;SDS011;21562;49.476;6.086;2022-09-09T08:24:04;5.60;;;1.88;;
35444;SDS011;21562;49.476;6.086;2022-09-09T08:26:32;12.77;;;2.40;;
35444;SDS011;21562;49.476;6.086;2022-09-09T08:29:00;12.73;;;2.05;;
35444;SDS011;21562;49.476;6.086;2022-09-09T08:31:28;9.43;;;1.60;;
35444;SDS011;21562;49.476;6.086;2022-09-09T08:33:59;11.77;;;1.48;;
35444;SDS011;21562;49.476;6.086;2022-09-09T08:36:26;26.35;;;3.47;;
35444;SDS011;21562;49.476;6.086;2022-09-09T08:38:54;14.13;;;2.03;;
35444;SDS011;21562;49.476;6.086;2022-09-09T08:44:14;11.82;;;1.58;;
35444;SDS011;21562;49.476;6.086;2022-09-09T08:57:49;18.02;;;2.28;;
35444;SDS011;21562;49.476;6.086;2022-09-09T09:00:18;9.00;;;1.90;;
35444;SDS011;21562;49.476;6.086;2022-09-09T09:02:57;11.07;;;1.80;;
35444;SDS011;21562;49.476;6.086;2022-09-09T09:05:44;12.75;;;1.60;;
35444;SDS011;21562;49.476;6.086;2022-09-09T09:08:25;13.77;;;2.05;;
35444;SDS011;21562;49.476;6.086;2022-09-09T09:10:54;16.27;;;2.00;;
35444;SDS011;21562;49.476;6.086;2022-09-09T09:13:37;8.68;;;1.38;;
35444;SDS011;21562;49.476;6.086;2022-09-09T09:19:07;12.65;;;1.85;;
35444;SDS011;21562;49.476;6.086;2022-09-09T09:21:39;8.68;;;1.27;;
35444;SDS011;21562;49.476;6.086;2022-09-09T09:24:16;13.30;;;1.42;;
35444;SDS011;21562;49.476;6.086;2022-09-09T09:27:00;7.50;;;1.08;;
35444;SDS011;21562;49.476;6.086;2022-09-09T09:29:37;8.52;;;1.20;;
35444;SDS011;21562;49.476;6.086;2022-09-09T09:32:05;7.00;;;1.40;;
35444;SDS011;21562;49.476;6.086;2022-09-09T09:34:35;7.28;;;1.17;;
35444;SDS011;21562;49.476;6.086;2022-09-09T09:37:00;6.72;;;1.35;;
35444;SDS011;21562;49.476;6.086;2022-09-09T09:39:28;8.85;;;1.50;;
35444;SDS011;21562;49.476;6.086;2022-09-09T09:41:55;14.65;;;1.63;;
35444;SDS011;21562;49.476;6.086;2022-09-09T09:44:25;6.70;;;1.10;;
35444;SDS011;21562;49.476;6.086;2022-09-09T09:46:51;8.48;;;1.08;;
35444;SDS011;21562;49.476;6.086;2022-09-09T09:49:17;8.15;;;1.67;;
35444;SDS011;21562;49.476;6.086;2022-09-09T09:51:43;11.35;;;1.50;;
35444;SDS011;21562;49.476;6.086;2022-09-09T09:56:38;7.07;;;1.20;;
35444;SDS011;21562;49.476;6.086;2022-09-09T09:59:05;6.32;;;1.00;;
35444;SDS011;21562;49.476;6.086;2022-09-09T10:01:38;6.93;;;1.13;;
35444;SDS011;21562;49.476;6.086;2022-09-09T10:04:14;6.30;;;1.10;;
35444;SDS011;21562;49.476;6.086;2022-09-09T10:06:43;3.63;;;0.95;;
35444;SDS011;21562;49.476;6.086;2022-09-09T10:11:57;8.88;;;1.20;;
35444;SDS011;21562;49.476;6.086;2022-09-09T10:15:11;5.20;;;1.00;;
35444;SDS011;21562;49.476;6.086;2022-09-09T10:22:50;8.82;;;1.00;;
35444;SDS011;21562;49.476;6.086;2022-09-09T10:25:29;12.50;;;1.40;;
35444;SDS011;21562;49.476;6.086;2022-09-09T10:36:27;11.05;;;1.58;;
35444;SDS011;21562;49.476;6.086;2022-09-09T10:49:48;12.82;;;2.78;;
35444;SDS011;21562;49.476;6.086;2022-09-09T10:54:59;8.50;;;0.93;;
35444;SDS011;21562;49.476;6.086;2022-09-09T10:57:45;6.20;;;0.70;;
35444;SDS011;21562;49.476;6.086;2022-09-09T11:00:20;3.30;;;0.68;;
35444;SDS011;21562;49.476;6.086;2022-09-09T11:02:55;3.42;;;0.70;;
35444;SDS011;21562;49.476;6.086;2022-09-09T11:08:02;7.22;;;1.02;;
35444;SDS011;21562;49.476;6.086;2022-09-09T11:10:37;5.03;;;0.95;;
35444;SDS011;21562;49.476;6.086;2022-09-09T11:13:52;4.97;;;1.13;;
35444;SDS011;21562;49.476;6.086;2022-09-09T11:16:04;6.90;;;1.02;;
35444;SDS011;21562;49.476;6.086;2022-09-09T11:18:50;4.93;;;1.00;;
35444;SDS011;21562;49.476;6.086;2022-09-09T11:21:24;5.45;;;0.93;;
35444;SDS011;21562;49.476;6.086;2022-09-09T11:23:54;7.50;;;1.75;;
35444;SDS011;21562;49.476;6.086;2022-09-09T11:27:07;9.63;;;1.33;;
35444;SDS011;21562;49.476;6.086;2022-09-09T11:29:22;8.55;;;1.23;;
35444;SDS011;21562;49.476;6.086;2022-09-09T11:32:27;9.65;;;1.20;;
35444;SDS011;21562;49.476;6.086;2022-09-09T11:40:44;7.45;;;1.05;;
35444;SDS011;21562;49.476;6.086;2022-09-09T11:43:11;3.58;;;0.77;;
35444;SDS011;21562;49.476;6.086;2022-09-09T11:45:43;8.05;;;1.25;;
35444;SDS011;21562;49.476;6.086;2022-09-09T11:48:28;6.72;;;1.33;;
35444;SDS011;21562;49.476;6.086;2022-09-09T11:51:01;5.57;;;0.80;;
35444;SDS011;21562;49.476;6.086;2022-09-09T11:53:30;8.18;;;1.27;;
35444;SDS011;21562;49.476;6.086;2022-09-09T11:58:54;5.50;;;1.15;;
35444;SDS011;21562;49.476;6.086;2022-09-09T12:01:30;6.45;;;0.90;;
35444;SDS011;21562;49.476;6.086;2022-09-09T12:04:14;6.63;;;1.42;;
35444;SDS011;21562;49.476;6.086;2022-09-09T12:09:31;7.40;;;0.85;;
35444;SDS011;21562;49.476;6.086;2022-09-09T12:17:15;4.82;;;0.98;;
35444;SDS011;21562;49.476;6.086;2022-09-09T12:19:44;7.20;;;1.00;;
35444;SDS011;21562;49.476;6.086;2022-09-09T12:36:41;5.28;;;0.50;;
35444;SDS011;21562;49.476;6.086;2022-09-09T12:39:19;4.15;;;1.13;;
35444;SDS011;21562;49.476;6.086;2022-09-09T12:41:54;2.22;;;0.30;;
35444;SDS011;21562;49.476;6.086;2022-09-09T12:44:22;3.83;;;0.88;;
35444;SDS011;21562;49.476;6.086;2022-09-09T12:46:49;9.38;;;0.90;;
35444;SDS011;21562;49.476;6.086;2022-09-09T12:49:26;3.88;;;0.57;;
35444;SDS011;21562;49.476;6.086;2022-09-09T12:52:01;9.65;;;0.95;;
35444;SDS011;21562;49.476;6.086;2022-09-09T12:54:30;6.78;;;0.98;;
35444;SDS011;21562;49.476;6.086;2022-09-09T12:56:55;3.30;;;0.60;;
35444;SDS011;21562;49.476;6.086;2022-09-09T12:59:26;1.23;;;0.50;;
35444;SDS011;21562;49.476;6.086;2022-09-09T13:02:00;1.83;;;0.40;;
35444;SDS011;21562;49.476;6.086;2022-09-09T13:04:26;3.53;;;0.70;;
35444;SDS011;21562;49.476;6.086;2022-09-09T13:06:52;5.30;;;0.63;;
35444;SDS011;21562;49.476;6.086;2022-09-09T13:09:18;10.38;;;1.00;;
35444;SDS011;21562;49.476;6.086;2022-09-09T13:11:46;11.43;;;1.30;;
35444;SDS011;21562;49.476;6.086;2022-09-09T13:14:19;7.28;;;0.93;;
35444;SDS011;21562;49.476;6.086;2022-09-09T13:16:58;7.38;;;0.77;;
35444;SDS011;21562;49.476;6.086;2022-09-09T13:19:25;6.88;;;1.50;;
35444;SDS011;21562;49.476;6.086;2022-09-09T13:21:53;4.82;;;0.63;;
35444;SDS011;21562;49.476;6.086;2022-09-09T13:24:30;3.58;;;0.60;;
35444;SDS011;21562;49.476;6.086;2022-09-09T13:26:58;7.90;;;1.30;;
35444;SDS011;21562;49.476;6.086;2022-09-09T13:29:29;10.13;;;0.93;;
35444;SDS011;21562;49.476;6.086;2022-09-09T13:32:06;8.00;;;1.25;;
35444;SDS011;21562;49.476;6.086;2022-09-09T13:34:49;3.78;;;0.88;;
35444;SDS011;21562;49.476;6.086;2022-09-09T13:37:19;4.75;;;1.08;;
35444;SDS011;21562;49.476;6.086;2022-09-09T13:39:51;5.72;;;1.08;;
35444;SDS011;21562;49.476;6.086;2022-09-09T13:42:22;3.03;;;0.50;;
35444;SDS011;21562;49.476;6.086;2022-09-09T13:44:51;4.55;;;0.80;;
35444;SDS011;21562;49.476;6.086;2022-09-09T13:47:21;2.45;;;0.57;;
35444;SDS011;21562;49.476;6.086;2022-09-09T13:49:52;2.60;;;0.70;;
35444;SDS011;21562;49.476;6.086;2022-09-09T13:52:18;6.53;;;0.80;;
35444;SDS011;21562;49.476;6.086;2022-09-09T13:54:50;4.60;;;1.00;;
35444;SDS011;21562;49.476;6.086;2022-09-09T13:57:21;7.25;;;1.30;;
35444;SDS011;21562;49.476;6.086;2022-09-09T13:59:49;3.92;;;0.88;;
35444;SDS011;21562;49.476;6.086;2022-09-09T14:02:15;5.90;;;0.82;;
35444;SDS011;21562;49.476;6.086;2022-09-09T14:04:41;1.67;;;0.88;;
35444;SDS011;21562;49.476;6.086;2022-09-09T14:07:11;5.85;;;1.13;;
35444;SDS011;21562;49.476;6.086;2022-09-09T14:09:38;8.73;;;1.13;;
35444;SDS011;21562;49.476;6.086;2022-09-09T14:12:04;3.42;;;0.60;;
35444;SDS011;21562;49.476;6.086;2022-09-09T14:14:30;6.25;;;0.95;;
35444;SDS011;21562;49.476;6.086;2022-09-09T14:16:55;5.35;;;1.13;;
35444;SDS011;21562;49.476;6.086;2022-09-09T14:19:21;8.63;;;0.95;;
35444;SDS011;21562;49.476;6.086;2022-09-09T14:21:47;5.28;;;1.20;;
35444;SDS011;21562;49.476;6.086;2022-09-09T14:24:13;4.20;;;1.05;;
35444;SDS011;21562;49.476;6.086;2022-09-09T14:26:39;4.55;;;1.20;;
35444;SDS011;21562;49.476;6.086;2022-09-09T14:29:05;5.70;;;1.20;;
35444;SDS011;21562;49.476;6.086;2022-09-09T14:31:31;4.05;;;0.80;;
35444;SDS011;21562;49.476;6.086;2022-09-09T14:33:57;4.50;;;0.90;;
35444;SDS011;21562;49.476;6.086;2022-09-09T14:36:23;6.80;;;1.05;;
35444;SDS011;21562;49.476;6.086;2022-09-09T14:38:49;6.80;;;1.50;;
35444;SDS011;21562;49.476;6.086;2022-09-09T14:41:16;7.28;;;1.17;;
35444;SDS011;21562;49.476;6.086;2022-09-09T14:43:44;3.05;;;0.80;;
35444;SDS011;21562;49.476;6.086;2022-09-09T14:46:11;3.40;;;1.00;;
35444;SDS011;21562;49.476;6.086;2022-09-09T14:48:41;6.30;;;1.20;;
35444;SDS011;21562;49.476;6.086;2022-09-09T14:51:07;8.35;;;1.17;;
35444;SDS011;21562;49.476;6.086;2022-09-09T14:53:34;5.35;;;0.98;;
35444;SDS011;21562;49.476;6.086;2022-09-09T14:56:08;3.58;;;0.73;;
35444;SDS011;21562;49.476;6.086;2022-09-09T14:58:39;6.85;;;1.23;;
35444;SDS011;21562;49.476;6.086;2022-09-09T15:01:05;9.00;;;1.48;;
35444;SDS011;21562;49.476;6.086;2022-09-09T15:03:39;2.78;;;0.88;;
35444;SDS011;21562;49.476;6.086;2022-09-09T15:06:09;3.28;;;0.93;;
35444;SDS011;21562;49.476;6.086;2022-09-09T15:08:37;5.82;;;1.00;;
35444;SDS011;21562;49.476;6.086;2022-09-09T15:11:04;6.38;;;1.30;;
35444;SDS011;21562;49.476;6.086;2022-09-09T15:13:32;1.67;;;0.50;;
35444;SDS011;21562;49.476;6.086;2022-09-09T15:16:09;4.97;;;0.50;;
35444;SDS011;21562;49.476;6.086;2022-09-09T15:18:37;4.68;;;0.95;;
35444;SDS011;21562;49.476;6.086;2022-09-09T15:21:07;3.95;;;0.43;;
35444;SDS011;21562;49.476;6.086;2022-09-09T15:23:40;1.95;;;0.50;;
35444;SDS011;21562;49.476;6.086;2022-09-09T15:26:06;3.72;;;0.82;;
35444;SDS011;21562;49.476;6.086;2022-09-09T15:28:33;3.13;;;0.93;;
35444;SDS011;21562;49.476;6.086;2022-09-09T15:31:13;5.55;;;0.75;;
35444;SDS011;21562;49.476;6.086;2022-09-09T15:33:45;4.63;;;0.60;;
35444;SDS011;21562;49.476;6.086;2022-09-09T15:38:39;4.00;;;0.98;;
35444;SDS011;21562;49.476;6.086;2022-09-09T15:41:05;4.55;;;0.70;;
35444;SDS011;21562;49.476;6.086;2022-09-09T15:43:31;6.05;;;0.75;;
35444;SDS011;21562;49.476;6.086;2022-09-09T15:45:58;4.63;;;0.73;;
35444;SDS011;21562;49.476;6.086;2022-09-09T15:48:34;7.47;;;0.73;;
35444;SDS011;21562;49.476;6.086;2022-09-09T15:51:03;6.93;;;0.98;;
35444;SDS011;21562;49.476;6.086;2022-09-09T15:53:29;5.72;;;1.10;;
35444;SDS011;21562;49.476;6.086;2022-09-09T15:55:57;8.52;;;1.00;;
35444;SDS011;21562;49.476;6.086;2022-09-09T15:58:23;6.80;;;1.30;;
35444;SDS011;21562;49.476;6.086;2022-09-09T16:00:49;4.43;;;1.08;;
35444;SDS011;21562;49.476;6.086;2022-09-09T16:03:14;6.20;;;1.10;;
35444;SDS011;21562;49.476;6.086;2022-09-09T16:05:40;7.68;;;1.25;;
35444;SDS011;21562;49.476;6.086;2022-09-09T16:08:06;6.60;;;1.00;;
35444;SDS011;21562;49.476;6.086;2022-09-09T16:10:32;8.27;;;1.30;;
35444;SDS011;21562;49.476;6.086;2022-09-09T16:12:57;4.00;;;1.30;;
35444;SDS011;21562;49.476;6.086;2022-09-09T16:15:23;3.83;;;0.90;;
35444;SDS011;21562;49.476;6.086;2022-09-09T16:17:52;4.03;;;0.70;;
35444;SDS011;21562;49.476;6.086;2022-09-09T16:20:18;4.30;;;0.45;;
35444;SDS011;21562;49.476;6.086;2022-09-09T16:22:45;2.60;;;0.50;;
35444;SDS011;21562;49.476;6.086;2022-09-09T16:25:10;3.45;;;0.50;;
35444;SDS011;21562;49.476;6.086;2022-09-09T16:27:36;1.25;;;0.43;;
35444;SDS011;21562;49.476;6.086;2022-09-09T16:30:02;1.67;;;0.32;;
35444;SDS011;21562;49.476;6.086;2022-09-09T16:32:28;1.20;;;0.32;;
35444;SDS011;21562;49.476;6.086;2022-09-09T16:34:53;4.25;;;0.80;;
35444;SDS011;21562;49.476;6.086;2022-09-09T16:37:19;3.22;;;0.73;;
35444;SDS011;21562;49.476;6.086;2022-09-09T16:39:45;2.58;;;0.40;;
35444;SDS011;21562;49.476;6.086;2022-09-09T16:42:10;3.38;;;1.15;;
35444;SDS011;21562;49.476;6.086;2022-09-09T16:44:36;0.57;;;0.47;;
35444;SDS011;21562;49.476;6.086;2022-09-09T16:47:02;3.03;;;0.68;;
35444;SDS011;21562;49.476;6.086;2022-09-09T16:49:28;1.10;;;0.60;;
35444;SDS011;21562;49.476;6.086;2022-09-09T16:51:53;4.18;;;0.73;;
35444;SDS011;21562;49.476;6.086;2022-09-09T16:54:22;3.65;;;0.80;;
35444;SDS011;21562;49.476;6.086;2022-09-09T16:56:50;4.57;;;0.77;;
35444;SDS011;21562;49.476;6.086;2022-09-09T16:59:17;5.78;;;1.00;;
35444;SDS011;21562;49.476;6.086;2022-09-09T17:01:45;4.78;;;0.90;;
35444;SDS011;21562;49.476;6.086;2022-09-09T17:04:13;4.85;;;1.30;;
35444;SDS011;21562;49.476;6.086;2022-09-09T17:06:41;9.15;;;1.67;;
35444;SDS011;21562;49.476;6.086;2022-09-09T17:09:07;9.52;;;1.48;;
35444;SDS011;21562;49.476;6.086;2022-09-09T17:11:35;4.47;;;1.00;;
35444;SDS011;21562;49.476;6.086;2022-09-09T17:14:05;2.75;;;1.00;;